createdAt,value
2018-12-10T00:00:24.915Z,42.7
2018-12-10T00:03:47.077Z,42.7
2018-12-10T00:07:09.152Z,42.7
2018-12-10T00:10:31.480Z,42.7
2018-12-10T00:13:53.570Z,42.7
2018-12-10T00:17:15.680Z,42.7
2018-12-10T00:20:38.003Z,42.7
2018-12-10T00:24:00.019Z,42.7
2018-12-10T00:27:22.436Z,42.7
2018-12-10T00:30:44.439Z,42.7
2018-12-10T00:34:06.620Z,42.7
2018-12-10T00:37:28.796Z,42.7
2018-12-10T00:40:50.888Z,42.7
2018-12-10T00:44:13.188Z,42.7
2018-12-10T00:47:35.403Z,42.7
2018-12-10T00:50:57.509Z,42.7
2018-12-10T00:54:19.659Z,42.7
2018-12-10T00:57:41.828Z,42.7
2018-12-10T01:01:04.029Z,42.7
2018-12-10T01:04:27.011Z,42.7
2018-12-10T01:07:48.310Z,42.7
2018-12-10T01:11:10.547Z,42.7
2018-12-10T01:14:32.743Z,42.7
2018-12-10T01:17:54.893Z,42.7
2018-12-10T01:21:17.142Z,42.7
2018-12-10T01:24:39.256Z,42.7
2018-12-10T01:28:01.398Z,42.7
2018-12-10T01:31:23.579Z,42.7
2018-12-10T01:34:47.216Z,42.7
2018-12-10T01:38:07.936Z,42.7
2018-12-10T01:41:30.223Z,42.7
2018-12-10T01:44:52.210Z,42.7
2018-12-10T01:48:14.494Z,42.7
2018-12-10T01:51:36.653Z,42.7
2018-12-10T01:54:58.817Z,42.7
2018-12-10T01:58:20.926Z,42.6
2018-12-10T02:01:43.173Z,42.6
2018-12-10T02:05:05.346Z,42.6
2018-12-10T02:08:27.658Z,42.7
2018-12-10T02:11:49.691Z,42.7
2018-12-10T02:15:11.875Z,42.7
2018-12-10T02:18:33.970Z,42.7
2018-12-10T02:21:56.269Z,42.7
2018-12-10T02:25:18.314Z,42.6
2018-12-10T02:28:40.608Z,42.6
2018-12-10T02:32:02.775Z,42.6
2018-12-10T02:35:24.851Z,42.6
2018-12-10T02:38:47.125Z,42.6
2018-12-10T02:42:09.368Z,42.6
2018-12-10T02:45:31.374Z,42.7
2018-12-10T02:48:53.633Z,42.7
2018-12-10T02:52:15.775Z,42.7
2018-12-10T02:55:37.907Z,42.7
2018-12-10T02:59:00.067Z,42.6
2018-12-10T03:02:22.266Z,42.6
2018-12-10T03:05:44.535Z,42.6
2018-12-10T03:09:06.665Z,42.6
2018-12-10T03:12:28.862Z,42.6
2018-12-10T03:15:51.050Z,42.6
2018-12-10T03:19:13.186Z,42.6
2018-12-10T03:22:35.370Z,42.6
2018-12-10T03:25:57.528Z,42.6
2018-12-10T03:29:19.668Z,42.6
2018-12-10T03:32:41.955Z,42.6
2018-12-10T03:36:04.159Z,42.6
2018-12-10T03:39:26.247Z,42.6
2018-12-10T03:42:48.340Z,42.6
2018-12-10T03:46:10.647Z,42.5
2018-12-10T03:49:32.757Z,42.5
2018-12-10T03:52:54.879Z,42.6
2018-12-10T03:56:17.116Z,42.5
2018-12-10T03:59:39.234Z,42.5
2018-12-10T04:03:01.571Z,42.5
2018-12-10T04:06:23.658Z,42.5
2018-12-10T04:09:45.824Z,42.5
2018-12-10T04:13:07.997Z,42.5
2018-12-10T04:19:52.277Z,42.5
2018-12-10T04:23:14.533Z,42.4
2018-12-10T04:26:36.705Z,42.3
2018-12-10T04:29:58.879Z,42.3
2018-12-10T04:33:21.079Z,42.3
2018-12-10T04:36:43.224Z,42.3
2018-12-10T04:40:05.319Z,42.3
2018-12-10T04:43:27.495Z,42.3
2018-12-10T04:46:49.666Z,42.3
2018-12-10T04:50:11.966Z,42.3
2018-12-10T04:53:34.195Z,42.3
2018-12-10T04:56:56.196Z,42.3
2018-12-10T05:00:18.560Z,42.3
2018-12-10T05:07:02.833Z,42.3
2018-12-10T05:10:25.002Z,42.3
2018-12-10T05:13:47.155Z,42.3
2018-12-10T05:17:09.327Z,42.3
2018-12-10T05:20:31.493Z,42.3
2018-12-10T05:23:53.611Z,42.3
2018-12-10T05:27:15.841Z,42.2
2018-12-10T05:30:38.032Z,42.3
2018-12-10T05:34:00.217Z,42.3
2018-12-10T05:37:22.396Z,42.3
2018-12-10T05:40:44.546Z,42.4
2018-12-10T05:44:06.732Z,42.4
2018-12-10T05:47:28.919Z,42.4
2018-12-10T05:50:51.114Z,42.4
2018-12-10T05:54:13.205Z,42.3
2018-12-10T05:57:35.372Z,42.1
2018-12-10T06:00:57.716Z,42.2
2018-12-10T06:04:19.734Z,42.2
2018-12-10T06:07:42.012Z,42.4
2018-12-10T06:11:04.134Z,42.5
2018-12-10T06:14:26.446Z,42.7
2018-12-10T06:17:48.414Z,42.9
2018-12-10T06:21:10.691Z,43.2
2018-12-10T06:24:32.786Z,43.2
2018-12-10T06:27:55.011Z,41.7
2018-12-10T06:31:17.237Z,43.5
2018-12-10T06:34:39.358Z,43.8
2018-12-10T06:38:01.525Z,45.3
2018-12-10T06:41:23.868Z,47.8
2018-12-10T06:44:45.883Z,47
2018-12-10T06:48:08.126Z,46.6
2018-12-10T06:51:30.148Z,46.4
2018-12-10T06:54:52.406Z,46.1
2018-12-10T06:58:14.561Z,45.8
2018-12-10T07:01:36.840Z,45.6
2018-12-10T07:04:58.919Z,45.4
2018-12-10T07:08:21.143Z,45.2
2018-12-10T07:11:43.336Z,38.8
2018-12-10T07:15:05.517Z,38.3
2018-12-10T07:18:27.668Z,37.2
2018-12-10T07:21:49.724Z,40.5
2018-12-10T07:25:11.978Z,38.7
2018-12-10T07:28:34.240Z,38.1
2018-12-10T07:31:56.459Z,38.2
2018-12-10T07:35:18.505Z,38.5
2018-12-10T07:38:40.764Z,38.8
2018-12-10T07:45:25.015Z,39.2
2018-12-10T07:48:50.149Z,39.5
2018-12-10T07:52:09.363Z,39.5
2018-12-10T07:55:31.476Z,39.8
2018-12-10T07:58:53.737Z,39.9
2018-12-10T08:02:15.951Z,39.9
2018-12-10T08:05:38.070Z,40.1
2018-12-10T08:09:00.360Z,40.5
2018-12-10T08:12:22.392Z,40.5
2018-12-10T08:15:44.586Z,40.8
2018-12-10T08:19:06.866Z,40.7
2018-12-10T08:22:28.947Z,40.6
2018-12-10T08:25:51.018Z,40.5
2018-12-10T08:29:13.279Z,40.5
2018-12-10T08:32:36.436Z,40.4
2018-12-10T08:35:57.626Z,40.4
2018-12-10T08:39:19.843Z,40.3
2018-12-10T08:42:42.077Z,40.3
2018-12-10T08:46:04.136Z,40.3
2018-12-10T08:49:26.234Z,40.3
2018-12-10T08:52:50.074Z,40.4
2018-12-10T08:56:10.655Z,40.3
2018-12-10T08:59:34.987Z,40.3
2018-12-10T09:02:55.012Z,40.3
2018-12-10T09:06:17.109Z,40.3
2018-12-10T09:09:39.404Z,40.3
2018-12-10T09:16:23.713Z,40.3
2018-12-10T09:23:08.058Z,40.2
2018-12-10T09:26:30.230Z,40.3
2018-12-10T09:29:52.406Z,40.4
2018-12-10T09:36:36.765Z,40.4
2018-12-10T09:39:58.871Z,40.4
2018-12-10T09:43:21.109Z,40.3
2018-12-10T09:46:43.208Z,40.4
2018-12-10T09:50:05.451Z,40.4
2018-12-10T09:53:27.618Z,40.4
2018-12-10T09:56:49.713Z,40.5
2018-12-10T10:00:12.078Z,40.3
2018-12-10T10:03:34.200Z,40.4
2018-12-10T10:06:56.337Z,40.4
2018-12-10T10:10:18.524Z,40.4
2018-12-10T10:13:40.750Z,40.4
2018-12-10T10:17:02.739Z,40.3
2018-12-10T10:20:25.048Z,40.3
2018-12-10T10:23:54.220Z,40.4
2018-12-10T10:27:09.438Z,40.4
2018-12-10T10:30:31.530Z,40.5
2018-12-10T10:33:53.812Z,40.6
2018-12-10T10:37:15.797Z,40.6
2018-12-10T10:40:38.110Z,40.7
2018-12-10T10:44:00.338Z,40.6
2018-12-10T10:47:22.314Z,40.6
2018-12-10T10:54:06.757Z,40.5
2018-12-10T10:57:29.024Z,40.5
2018-12-10T11:00:51.603Z,40.5
2018-12-10T11:04:13.285Z,40.5
2018-12-10T11:07:35.446Z,40.6
2018-12-10T11:14:19.814Z,40.4
2018-12-10T11:17:41.970Z,40.6
2018-12-10T11:24:26.318Z,40.4
2018-12-10T11:27:48.540Z,40.4
2018-12-10T11:31:10.957Z,40.3
2018-12-10T11:34:32.853Z,40.3
2018-12-10T11:37:54.955Z,40.3
2018-12-10T11:41:19.309Z,40.4
2018-12-10T11:44:39.441Z,40.4
2018-12-10T11:48:01.436Z,40.5
2018-12-10T11:51:23.660Z,40.6
2018-12-10T11:54:45.940Z,40.7
2018-12-10T11:58:08.060Z,40.8
2018-12-10T12:01:30.243Z,40.9
2018-12-10T12:04:52.411Z,41
2018-12-10T12:08:14.549Z,41.1
2018-12-10T12:11:36.864Z,41.2
2018-12-10T12:14:58.865Z,41.3
2018-12-10T12:18:21.063Z,41.4
2018-12-10T12:21:43.338Z,41.5
2018-12-10T12:25:05.405Z,41.5
2018-12-10T12:28:27.602Z,41.6
2018-12-10T12:31:49.947Z,41.6
2018-12-10T12:35:12.043Z,41.7
2018-12-10T12:38:34.153Z,41.7
2018-12-10T12:41:56.358Z,41.7
2018-12-10T12:48:40.662Z,41.8
2018-12-10T12:52:02.779Z,41.9
2018-12-10T12:55:24.913Z,42
2018-12-10T12:58:47.056Z,42.2
2018-12-10T13:02:09.246Z,42.2
2018-12-10T13:05:31.550Z,42.4
2018-12-10T13:08:53.585Z,42.4
2018-12-10T13:12:15.846Z,42.4
2018-12-10T13:15:38.021Z,42.2
2018-12-10T13:19:00.187Z,42.2
2018-12-10T13:22:22.385Z,42
2018-12-10T13:25:44.644Z,42
2018-12-10T13:29:06.724Z,41.9
2018-12-10T13:32:28.874Z,41.6
2018-12-10T13:35:51.063Z,41.5
2018-12-10T13:39:13.230Z,41.3
2018-12-10T13:42:35.481Z,41.3
2018-12-10T13:45:57.803Z,41
2018-12-10T13:49:19.728Z,40.8
2018-12-10T13:52:41.941Z,40.8
2018-12-10T13:56:04.167Z,40.8
2018-12-10T13:59:26.382Z,40.9
2018-12-10T14:02:48.404Z,40.9
2018-12-10T14:09:32.856Z,40.9
2018-12-10T14:12:54.975Z,41.1
2018-12-10T14:16:17.105Z,41.2
2018-12-10T14:19:39.304Z,41.3
2018-12-10T14:23:01.582Z,41.4
2018-12-10T14:26:23.679Z,41.4
2018-12-10T14:29:45.840Z,41.4
2018-12-10T14:33:08.089Z,41.5
2018-12-10T14:36:30.217Z,41.4
2018-12-10T14:39:52.352Z,41.4
2018-12-10T14:46:36.783Z,41.4
2018-12-10T14:49:58.879Z,41.4
2018-12-10T14:53:20.957Z,41.4
2018-12-10T14:56:43.295Z,42.2
2018-12-10T15:00:05.417Z,42.4
2018-12-10T15:06:49.798Z,42.6
2018-12-10T15:10:12.047Z,42.5
2018-12-10T15:13:34.100Z,42.5
2018-12-10T15:16:56.299Z,42.3
2018-12-10T15:20:18.557Z,42.9
2018-12-10T15:23:40.682Z,42.3
2018-12-10T15:27:02.731Z,43.3
2018-12-10T15:30:25.279Z,42.2
2018-12-10T15:33:47.198Z,41.8
2018-12-10T15:37:09.405Z,41.5
2018-12-10T15:40:31.436Z,41.7
2018-12-10T15:43:53.762Z,44.2
2018-12-10T15:47:15.910Z,45.2
2018-12-10T15:50:38.017Z,46
2018-12-10T15:54:00.137Z,46
2018-12-10T15:57:22.458Z,47.3
2018-12-10T16:00:44.551Z,48.2
2018-12-10T16:04:06.724Z,48.4
2018-12-10T16:07:28.848Z,48.6
2018-12-10T16:10:51.040Z,47.7
2018-12-10T16:14:13.144Z,47.5
2018-12-10T16:17:35.465Z,44.9
2018-12-10T16:20:57.638Z,41.3
2018-12-10T16:24:19.819Z,44.7
2018-12-10T16:31:04.130Z,41.2
2018-12-10T16:34:26.346Z,42.6
2018-12-10T16:37:48.422Z,44.3
2018-12-10T16:41:10.717Z,44.4
2018-12-10T16:44:32.755Z,44.4
2018-12-10T16:47:55.042Z,44.1
2018-12-10T16:51:17.130Z,44
2018-12-10T16:54:39.333Z,43.9
2018-12-10T16:58:01.533Z,43.7
2018-12-10T17:01:23.544Z,43.6
2018-12-10T17:04:45.811Z,43.6
2018-12-10T17:08:07.967Z,43.6
2018-12-10T17:11:30.196Z,43.5
2018-12-10T17:14:52.291Z,43.4
2018-12-10T17:18:14.446Z,43.5
2018-12-10T17:21:36.707Z,43.4
2018-12-10T17:24:58.851Z,43.3
2018-12-10T17:28:20.954Z,43.4
2018-12-10T17:31:43.143Z,43.2
2018-12-10T17:35:05.451Z,43.2
2018-12-10T17:38:27.571Z,43.2
2018-12-10T17:41:49.722Z,43
2018-12-10T17:45:11.858Z,43
2018-12-10T17:48:34.074Z,42.9
2018-12-10T17:51:56.254Z,42.9
2018-12-10T17:55:18.418Z,42.8
2018-12-10T17:58:40.649Z,42.7
2018-12-10T18:02:02.686Z,42.7
2018-12-10T18:05:25.056Z,42.6
2018-12-10T18:08:47.033Z,42.6
2018-12-10T18:12:09.215Z,42.6
2018-12-10T18:15:31.465Z,42.6
2018-12-10T18:18:53.655Z,42.6
2018-12-10T18:22:15.855Z,42.6
2018-12-10T18:25:37.992Z,42.7
2018-12-10T18:29:01.773Z,42.6
2018-12-10T18:32:22.287Z,42.6
2018-12-10T18:35:44.584Z,42.6
2018-12-10T18:39:06.728Z,42.6
2018-12-10T18:42:28.949Z,42.6
2018-12-10T18:42:29.311Z,42.6
2018-12-10T18:45:51.099Z,42.6
2018-12-10T18:49:13.177Z,42.5
2018-12-10T18:52:35.462Z,42.5
2018-12-10T18:55:57.601Z,42.5
2018-12-10T18:59:19.762Z,42.5
2018-12-10T19:02:41.950Z,42.5
2018-12-10T19:06:04.190Z,42.4
2018-12-10T19:09:26.333Z,42.4
2018-12-10T19:12:48.502Z,42.4
2018-12-10T19:16:10.760Z,42.3
2018-12-10T19:19:32.866Z,42.4
2018-12-10T19:22:55.004Z,42.3
2018-12-10T19:26:17.299Z,42.3
2018-12-10T19:29:39.330Z,42.3
2018-12-10T19:33:01.528Z,42.3
2018-12-10T19:36:23.788Z,42.2
2018-12-10T19:39:45.998Z,42.2
2018-12-10T19:43:08.105Z,42.2
2018-12-10T19:46:30.300Z,42.3
2018-12-10T19:49:52.484Z,42.2
2018-12-10T19:53:14.574Z,42.1
2018-12-10T19:56:36.725Z,42.1
2018-12-10T19:59:58.998Z,42.1
2018-12-10T20:06:43.316Z,42
2018-12-10T20:10:05.484Z,42
2018-12-10T20:13:27.624Z,41.9
2018-12-10T20:16:49.783Z,41.9
2018-12-10T20:20:12.134Z,41.9
2018-12-10T20:23:34.141Z,41.9
2018-12-10T20:26:56.337Z,41.9
2018-12-10T20:30:18.878Z,41.9
2018-12-10T20:33:43.381Z,41.9
2018-12-10T20:37:02.833Z,41.9
2018-12-10T20:40:25.032Z,42
2018-12-10T20:43:47.245Z,42
2018-12-10T20:47:09.425Z,42
2018-12-10T20:50:31.552Z,42
2018-12-10T20:53:53.659Z,42.1
2018-12-10T20:57:16.014Z,42.1
2018-12-10T21:00:38.196Z,42
2018-12-10T21:04:00.268Z,41.7
2018-12-10T21:07:22.437Z,41.7
2018-12-10T21:10:44.525Z,41.7
2018-12-10T21:14:06.760Z,41.7
2018-12-10T21:17:29.011Z,41.9
2018-12-10T21:20:51.134Z,42
2018-12-10T21:24:13.292Z,41.7
2018-12-10T21:27:35.517Z,41.6
2018-12-10T21:30:57.677Z,41.6
2018-12-10T21:34:19.767Z,41.7
2018-12-10T21:37:42.167Z,41.8
2018-12-10T21:41:04.186Z,41.8
2018-12-10T21:44:26.561Z,41.9
2018-12-10T21:47:48.611Z,42
2018-12-10T21:51:10.789Z,42.1
2018-12-10T21:54:32.889Z,42.1
2018-12-10T22:01:17.329Z,42.1
2018-12-10T22:04:39.417Z,42.1
2018-12-10T22:08:01.653Z,42.1
2018-12-10T22:11:23.850Z,42.2
2018-12-10T22:14:45.962Z,42
2018-12-10T22:18:08.168Z,41.9
2018-12-10T22:21:30.293Z,41.9
2018-12-10T22:24:52.475Z,41.9
2018-12-10T22:28:14.726Z,41.8
2018-12-10T22:31:36.824Z,41.8
2018-12-10T22:34:58.910Z,41.8
2018-12-10T22:38:21.215Z,41.8
2018-12-10T22:41:43.409Z,41.8
2018-12-10T22:45:05.452Z,41.8
2018-12-10T22:48:27.725Z,41.8
2018-12-10T22:51:49.888Z,41.8
2018-12-10T22:55:12.069Z,41.8
2018-12-10T22:58:34.180Z,41.8
2018-12-10T23:01:56.330Z,41.8
2018-12-10T23:05:18.591Z,41.8
2018-12-10T23:08:40.841Z,41.8
2018-12-10T23:12:02.874Z,41.8
2018-12-10T23:15:25.108Z,41.8
2018-12-10T23:18:47.267Z,41.8
2018-12-10T23:25:31.550Z,41.8
2018-12-10T23:28:53.774Z,41.7
2018-12-10T23:32:15.969Z,41.7
2018-12-10T23:35:38.190Z,41.7
2018-12-10T23:39:00.315Z,41.7
2018-12-10T23:42:22.476Z,41.7
2018-12-10T23:45:44.610Z,41.7
2018-12-10T23:49:06.945Z,41.7
2018-12-10T23:52:29.018Z,41.6
2018-12-10T23:55:51.116Z,41.6
2018-12-10T23:59:13.383Z,41.6
